Time;durP1;ratioP1;P1;durP2;ratioP2;P2;SDS_P1;SDS_P2;PMS_P1;PMS_P2;Temp;Humidity;BMP_temperature;BMP_pressure;BME280_temperature;BME280_humidity;BME280_pressure;Samples;Min_cycle;Max_cycle;Signal;HPM_P1;HPM_P2
2022/12/20 00:14:24;;;;;;;17.88;7.10;;;;;;;0.57;70.92;100903.69;30504118;28;98503;-68
2022/12/20 00:29:24;;;;;;;12.57;7.85;;;;;;;0.49;70.94;100901.50;30503557;28;96650;-66
2022/12/20 00:44:25;;;;;;;15.93;7.88;;;;;;;0.45;70.59;100874.63;30502899;28;96719;-67
2022/12/20 00:59:25;;;;;;;17.10;7.45;;;;;;;0.42;70.47;100881.81;30500335;28;96667;-68
2022/12/20 01:14:26;;;;;;;18.08;8.63;;;;;;;0.54;70.71;100891.59;30498653;28;97039;-67
2022/12/20 01:29:26;;;;;;;14.30;6.40;;;;;;;0.59;70.22;100907.06;30497958;28;97453;-67
2022/12/20 01:44:27;;;;;;;15.93;8.85;;;;;;;0.65;69.56;100880.50;30496797;28;97010;-68
2022/12/20 01:59:27;;;;;;;19.30;9.20;;;;;;;0.59;68.89;100844.13;30495316;28;97486;-67
2022/12/20 02:14:43;;;;;;;12.02;7.95;;;;;;;0.51;68.73;100813.13;30493012;28;96813;-68
2022/12/20 02:30:06;;;;;;;15.15;6.85;;;;;;;0.52;68.50;100804.34;30493527;28;96629;-67
2022/12/20 02:45:15;;;;;;;8.13;4.40;;;;;;;0.61;68.33;100787.22;30594583;28;97348;-67
2022/12/20 03:00:18;;;;;;;17.02;8.52;;;;;;;0.53;67.96;100766.69;30611229;28;96688;-67
2022/12/20 03:15:19;;;;;;;16.50;8.97;;;;;;;0.69;67.91;100760.53;30614760;28;96722;-67
2022/12/20 03:30:19;;;;;;;15.57;7.53;;;;;;;0.74;67.33;100753.22;30628011;28;96642;-68
2022/12/20 03:45:20;;;;;;;16.02;8.68;;;;;;;0.81;67.43;100752.75;30611069;28;96752;-68
2022/12/20 04:00:20;;;;;;;19.38;10.35;;;;;;;0.72;67.11;100758.56;30562607;28;96700;-67
2022/12/20 04:15:21;;;;;;;17.98;10.07;;;;;;;0.76;66.75;100743.50;30532651;28;97176;-67
2022/12/20 04:30:21;;;;;;;20.60;11.00;;;;;;;0.63;66.95;100764.34;30502148;28;96682;-68
2022/12/20 04:45:21;;;;;;;20.17;10.75;;;;;;;0.74;67.20;100772.44;30501193;28;97222;-68
2022/12/20 05:00:22;;;;;;;21.33;11.05;;;;;;;0.61;66.84;100759.19;30592518;28;97294;-70
2022/12/20 05:15:22;;;;;;;22.63;12.52;;;;;;;0.60;67.43;100749.69;30613850;28;97250;-68
2022/12/20 05:30:23;;;;;;;19.23;11.05;;;;;;;0.56;67.22;100768.28;30613920;28;96611;-68
2022/12/20 05:45:24;;;;;;;16.67;9.32;;;;;;;0.52;67.44;100757.16;30610198;28;96599;-67
2022/12/20 06:00:24;;;;;;;15.52;8.35;;;;;;;0.54;67.65;100731.69;30585161;28;97690;-66
2022/12/20 06:15:25;;;;;;;23.17;11.82;;;;;;;0.60;67.57;100744.44;30588037;28;97963;-67
2022/12/20 06:30:25;;;;;;;20.83;9.90;;;;;;;0.80;67.56;100727.47;30609496;28;97091;-66
2022/12/20 06:45:25;;;;;;;25.30;12.27;;;;;;;1.04;67.53;100731.28;30607931;28;97365;-69
2022/12/20 07:00:26;;;;;;;25.88;10.70;;;;;;;1.27;67.13;100749.09;30627393;28;97302;-69
2022/12/20 07:15:26;;;;;;;24.90;11.15;;;;;;;1.43;66.84;100737.59;30626597;28;97464;-65
2022/12/20 07:30:27;;;;;;;22.27;11.05;;;;;;;1.59;67.00;100748.81;30624911;28;96816;-66
2022/12/20 07:45:27;;;;;;;17.23;9.07;;;;;;;1.67;66.91;100727.31;30623838;28;96835;-66
2022/12/20 08:00:28;;;;;;;23.00;11.65;;;;;;;1.84;66.47;100723.56;30622604;28;96622;-67
2022/12/20 08:15:28;;;;;;;26.15;12.80;;;;;;;1.95;65.80;100733.38;30620046;28;97453;-67
2022/12/20 08:30:29;;;;;;;24.30;11.70;;;;;;;2.17;65.75;100715.25;30615952;28;96748;-68
2022/12/20 08:45:29;;;;;;;21.80;10.98;;;;;;;2.35;65.63;100738.59;30588792;28;96677;-68
2022/12/20 09:00:29;;;;;;;21.92;9.73;;;;;;;2.29;64.99;100749.53;30496836;28;96781;-65
2022/12/20 09:15:30;;;;;;;22.85;11.30;;;;;;;2.87;64.59;100729.78;30494794;28;96715;-66
2022/12/20 09:30:31;;;;;;;15.57;8.02;;;;;;;3.54;63.30;100719.78;30496078;28;97277;-66
2022/12/20 09:45:35;;;;;;;25.30;12.30;;;;;;;3.56;62.95;100683.66;30540241;28;96669;-67
2022/12/20 10:00:45;;;;;;;26.07;12.50;;;;;;;3.85;62.25;100693.81;30539493;28;96938;-67
2022/12/20 10:15:53;;;;;;;22.35;11.48;;;;;;;4.16;61.41;100707.34;30586580;28;97015;-70
2022/12/20 10:30:53;;;;;;;23.95;11.00;;;;;;;3.65;61.31;100719.88;30600869;28;97465;-66
2022/12/20 10:45:58;;;;;;;23.27;11.45;;;;;;;3.50;61.76;100710.44;30591183;28;97390;-66
2022/12/20 11:01:13;;;;;;;23.58;12.32;;;;;;;4.16;60.20;100663.34;30607111;28;96703;-64
2022/12/20 11:16:35;;;;;;;25.08;11.75;;;;;;;3.94;60.79;100656.25;30554554;28;96790;-69
2022/12/20 11:31:36;;;;;;;29.63;12.48;;;;;;;4.47;59.44;100631.97;30533633;28;96809;-64
2022/12/20 11:46:52;;;;;;;31.50;14.57;;;;;;;9.94;54.28;100616.97;30576445;28;97933;-66
2022/12/20 12:02:04;;;;;;;31.75;15.43;;;;;;;7.07;53.38;100621.03;30603827;28;96747;-66
2022/12/20 12:17:11;;;;;;;22.50;12.32;;;;;;;5.14;56.37;100624.06;30621588;28;97010;-70
2022/12/20 12:32:53;;;;;;;25.95;12.70;;;;;;;4.53;57.12;100641.22;30617348;28;97038;-71
2022/12/20 12:48:42;;;;;;;30.20;15.82;;;;;;;4.26;58.22;100616.00;30615981;28;96797;-70
2022/12/20 13:03:51;;;;;;;31.25;15.30;;;;;;;4.68;58.58;100594.31;30613606;28;96699;-72
2022/12/20 13:19:03;;;;;;;30.55;14.85;;;;;;;4.70;58.53;100582.66;30613185;28;96796;-67
2022/12/20 13:34:53;;;;;;;34.40;15.00;;;;;;;4.47;58.58;100570.44;30609834;28;97102;-70
2022/12/20 13:49:53;;;;;;;26.05;12.63;;;;;;;3.97;59.10;100566.38;30591931;28;96681;-67
2022/12/20 14:05:18;;;;;;;29.05;13.90;;;;;;;3.14;60.01;100519.94;30600757;28;96822;-71
2022/12/20 14:20:22;;;;;;;22.98;11.60;;;;;;;2.55;61.00;100524.22;30604824;28;97424;-67
2022/12/20 14:35:23;;;;;;;24.50;12.93;;;;;;;1.91;62.84;100504.13;30606585;28;97585;-68
2022/12/20 14:50:33;;;;;;;26.48;12.88;;;;;;;1.38;64.33;100506.88;30605069;28;98660;-68
2022/12/20 15:05:34;;;;;;;21.02;10.77;;;;;;;1.16;65.15;100482.06;30584098;28;97350;-69
2022/12/20 15:20:34;;;;;;;26.65;13.27;;;;;;;0.98;65.76;100451.78;30621142;28;97126;-67
2022/12/20 15:35:35;;;;;;;19.75;10.15;;;;;;;0.94;66.77;100469.50;30619179;28;98193;-69
2022/12/20 15:50:35;;;;;;;26.30;11.63;;;;;;;0.96;67.16;100472.88;30621351;28;97154;-67
2022/12/20 16:05:36;;;;;;;19.40;11.82;;;;;;;1.10;67.34;100447.53;30608088;28;96832;-66
2022/12/20 16:20:37;;;;;;;22.65;11.50;;;;;;;1.21;67.92;100428.44;30610933;28;97337;-70
2022/12/20 16:35:37;;;;;;;22.45;11.45;;;;;;;1.22;67.87;100445.84;30609326;28;97214;-66
2022/12/20 16:50:42;;;;;;;13.73;8.52;;;;;;;1.21;67.75;100441.56;30607327;28;96826;-68
2022/12/20 17:05:42;;;;;;;27.67;12.77;;;;;;;1.19;67.76;100441.66;30605190;28;97427;-71
2022/12/20 17:20:42;;;;;;;26.38;12.18;;;;;;;1.28;68.05;100425.28;30576255;28;97171;-68
2022/12/20 17:35:43;;;;;;;27.67;13.25;;;;;;;1.27;68.53;100434.13;30494205;28;97725;-71
2022/12/20 17:50:43;;;;;;;27.23;13.50;;;;;;;1.29;68.22;100468.13;30487529;28;97031;-73
2022/12/20 18:05:44;;;;;;;23.73;11.25;;;;;;;1.36;68.29;100414.25;30480678;28;96944;-72
2022/12/20 18:20:44;;;;;;;30.85;14.32;;;;;;;1.25;68.28;100450.91;30483747;28;97390;-73
2022/12/20 18:35:45;;;;;;;27.33;13.13;;;;;;;1.20;68.74;100409.22;30488597;28;96644;-73
2022/12/20 18:50:45;;;;;;;26.25;12.13;;;;;;;1.27;68.84;100404.38;30501383;28;96757;-72
2022/12/20 19:05:51;;;;;;;27.50;12.75;;;;;;;1.25;69.04;100343.31;30506896;28;97347;-72
2022/12/20 19:20:51;;;;;;;27.45;14.90;;;;;;;1.32;68.78;100369.00;30506788;28;96982;-73
2022/12/20 19:35:51;;;;;;;25.20;13.38;;;;;;;1.42;69.11;100344.75;30501911;28;97048;-71
2022/12/20 19:51:04;;;;;;;32.75;13.55;;;;;;;1.50;68.53;100351.16;30499000;28;97120;-70
2022/12/20 20:06:05;;;;;;;22.55;12.32;;;;;;;1.68;68.73;100299.09;30502228;28;96700;-68
2022/12/20 20:21:16;;;;;;;27.08;13.05;;;;;;;1.73;68.25;100306.63;30503472;28;96934;-68
2022/12/20 20:36:19;;;;;;;23.58;11.13;;;;;;;1.82;68.02;100266.56;30565120;28;97317;-69
2022/12/20 20:51:20;;;;;;;28.00;13.32;;;;;;;1.60;68.07;100288.31;30613589;28;96818;-68
2022/12/20 21:06:22;;;;;;;25.60;13.13;;;;;;;1.73;67.90;100274.28;30605551;28;97550;-67
2022/12/20 21:21:24;;;;;;;24.05;11.38;;;;;;;1.84;68.31;100272.53;30606878;28;97451;-69
2022/12/20 21:36:25;;;;;;;25.33;12.48;;;;;;;1.78;68.22;100256.41;30603621;28;97213;-69
2022/12/20 21:51:27;;;;;;;26.38;11.80;;;;;;;1.62;67.83;100275.06;30601462;28;97074;-68
2022/12/20 22:06:28;;;;;;;22.90;10.50;;;;;;;1.25;67.94;100239.16;30600617;28;97387;-69
2022/12/20 22:21:30;;;;;;;20.42;10.55;;;;;;;1.08;68.88;100215.88;30602031;28;97255;-68
2022/12/20 22:36:31;;;;;;;23.55;11.32;;;;;;;0.99;68.73;100193.78;30510973;28;96764;-69
2022/12/20 22:51:32;;;;;;;18.60;10.95;;;;;;;0.81;68.77;100193.28;30491284;28;96682;-70
2022/12/20 23:06:32;;;;;;;20.25;9.60;;;;;;;0.66;69.00;100148.81;30633281;28;97830;-69
2022/12/20 23:36:52;;;;;;;28.55;13.45;;;;;;;0.50;69.66;100156.91;30741925;28;96789;-69
2022/12/20 23:51:52;;;;;;;24.60;12.30;;;;;;;0.44;70.19;100154.72;30748846;28;96688;-69
